EDT,Max TemperatureF,Mean TemperatureF,Min TemperatureF,Max Dew PointF,MeanDew PointF,Min DewpointF,Max Humidity, Mean Humidity, Min Humidity, Max Sea Level PressureIn, Mean Sea Level PressureIn, Min Sea Level PressureIn, Max VisibilityMiles, Mean VisibilityMiles, Min VisibilityMiles, Max Wind SpeedMPH, Mean Wind SpeedMPH, Max Gust SpeedMPH,PrecipitationIn, CloudCover, Events, WindDirDegrees
2012-5-1,62,56,51,55,53,50,100,93,68,30.08,29.99,29.88,10,6,2,10,4,,0.00,6,Rain,43
2012-5-2,82,66,51,68,60,52,100,84,58,29.98,29.91,29.84,10,7,1,21,6,28,0.00,5,Rain,158
2012-5-3,87,74,60,70,62,55,100,68,33,30.00,29.94,29.85,10,8,1,24,6,36,0.00,2,Rain,223
2012-5-4,75,68,60,72,65,59,100,90,68,29.99,29.94,29.90,10,9,5,13,5,17,0.00,4,Rain,77
2012-5-5,64,58,51,61,54,48,100,82,63,30.09,30.03,29.94,10,10,7,10,7,16,0.00,5,,80
2012-5-6,68,57,46,54,42,32,100,61,33,30.12,30.06,29.99,10,10,10,15,4,22,0.00,1,,91
2012-5-7,64,58,51,64,54,32,100,90,36,30.02,29.87,29.79,10,7,3,13,5,16,0.00,7,Rain,73
2012-5-8,73,65,55,61,54,45,100,74,41,29.83,29.79,29.76,10,8,2,15,4,22,0.00,4,Rain,295
2012-5-9,64,57,50,52,48,43,100,73,48,29.85,29.79,29.75,10,10,7,18,5,29,0.00,5,Rain,296
2012-5-10,64,53,42,50,38,28,100,58,27,29.99,29.91,29.84,10,10,4,15,5,20,0.00,1,,323
2012-5-11,73,58,44,45,38,34,87,48,25,30.16,30.11,30.00,10,10,3,14,3,18,0.00,0,,243
2012-5-12,77,65,53,61,46,37,94,52,32,30.22,30.18,30.15,10,10,10,13,5,20,0.00,3,,243
2012-5-13,69,61,53,61,50,41,100,70,43,30.22,30.16,30.10,10,9,2,12,3,,0.00,4,Rain,66
2012-5-14,71,60,50,55,46,34,100,62,25,30.10,30.05,30.00,10,10,1,9,2,,0.00,0,,131
2012-5-15,82,64,46,54,44,36,100,53,20,30.01,29.93,29.84,10,10,10,16,3,20,0.00,0,,240
2012-5-16,68,60,53,55,40,28,88,50,24,30.11,29.99,29.85,10,10,10,18,6,26,0.00,2,Rain,1
2012-5-17,64,53,42,48,44,39,100,68,48,30.22,30.16,30.11,10,10,5,10,3,,0.00,0,,103
2012-5-18,71,58,44,54,47,39,100,69,33,30.17,30.12,30.07,10,10,7,8,2,,0.00,0,,116
2012-5-19,82,65,48,61,50,43,100,62,26,30.15,30.11,30.08,10,10,1,10,2,,0.00,0,,118
2012-5-20,84,68,53,64,55,50,100,61,33,30.16,30.10,30.01,10,9,3,12,3,17,0.00,0,,118
2012-5-21,82,71,60,61,58,54,100,70,39,30.01,29.98,29.94,10,10,10,17,4,24,0.00,2,Rain,326
2012-5-22,71,63,55,61,53,46,100,74,41,30.01,29.95,29.90,10,10,7,10,5,,0.00,5,,4
2012-5-23,73,62,51,61,56,52,100,76,50,29.96,29.91,29.85,10,8,2,9,3,,0.00,1,,114
2012-5-24,80,70,59,68,62,57,100,72,51,29.93,29.86,29.78,10,8,0,16,6,24,0.00,1,Fog,126
2012-5-25,91,81,69,63,56,43,69,46,24,30.09,29.93,29.84,10,10,10,16,10,23,0.00,1,,242
2012-5-26,73,68,62,59,54,46,82,59,43,30.28,30.16,30.10,10,10,7,14,4,23,0.00,2,Rain,51
2012-5-27,82,72,62,66,61,57,88,70,48,30.14,30.05,29.94,10,10,7,17,6,24,0.00,1,,101
2012-5-28,95,80,66,72,62,55,100,59,26,29.94,29.85,29.73,10,9,4,16,5,24,0.00,1,,212
2012-5-29,82,74,66,75,58,43,100,56,25,29.82,29.75,29.70,10,9,2,17,9,23,0.00,3,Rain,247
2012-5-30,75,64,53,54,46,41,100,52,29,29.89,29.83,29.79,10,10,10,17,5,23,0.00,2,,310
2012-5-31,66,58,51,55,49,45,100,74,49,30.00,29.92,29.85,10,10,7,13,5,20,0.00,5,Rain,46